Time;durP1;ratioP1;P1;durP2;ratioP2;P2;SDS_P1;SDS_P2;PMS_P1;PMS_P2;Temp;Humidity;BMP_temperature;BMP_pressure;BME280_temperature;BME280_humidity;BME280_pressure;Samples;Min_cycle;Max_cycle;Signal;HPM_P1;HPM_P2
2021/10/22 00:01:54;;;;;;;;;;;5.60;99.90;;;;;;5110108;27;19949;-80
2021/10/22 00:04:21;;;;;;;;;;;5.50;99.90;;;;;;5111890;27;19940;-80
2021/10/22 00:06:49;;;;;;;;;;;5.50;99.90;;;;;;5109366;27;19950;-80
2021/10/22 00:09:15;;;;;;;;;;;5.50;99.90;;;;;;5107310;27;19945;-80
2021/10/22 00:11:43;;;;;;;;;;;5.50;99.90;;;;;;5108878;27;19961;-80
2021/10/22 00:14:10;;;;;;;;;;;5.50;99.90;;;;;;5112157;27;20433;-80
2021/10/22 00:16:37;;;;;;;;;;;5.50;99.90;;;;;;5109400;27;20409;-80
2021/10/22 00:19:04;;;;;;;;;;;5.40;99.90;;;;;;5105004;27;19961;-80
2021/10/22 00:21:31;;;;;;;;;;;5.40;99.90;;;;;;5106491;27;20395;-79
2021/10/22 00:23:59;;;;;;;;;;;5.40;99.90;;;;;;5107009;27;20323;-80
2021/10/22 00:26:25;;;;;;;;;;;5.40;99.90;;;;;;5118230;27;20008;-80
2021/10/22 00:28:52;;;;;;;;;;;5.40;99.90;;;;;;5107448;27;19957;-79
2021/10/22 00:31:20;;;;;;;;;;;5.40;99.90;;;;;;5122594;27;20077;-79
2021/10/22 00:33:47;;;;;;;;;;;5.40;99.90;;;;;;5108681;27;19982;-80
2021/10/22 00:36:13;;;;;;;;;;;5.40;99.90;;;;;;5102458;28;20329;-81
2021/10/22 00:38:40;;;;;;;;;;;5.40;99.90;;;;;;5111268;27;20505;-79
2021/10/22 00:41:08;;;;;;;;;;;5.40;99.90;;;;;;5108741;27;20027;-80
2021/10/22 00:43:35;;;;;;;;;;;5.40;99.90;;;;;;5106466;27;19944;-80
2021/10/22 00:46:02;;;;;;;;;;;5.40;99.90;;;;;;5117947;27;19947;-80
2021/10/22 00:48:28;;;;;;;;;;;5.40;99.90;;;;;;5117628;28;19990;-80
2021/10/22 00:50:57;;;;;;;;;;;5.40;99.90;;;;;;5110640;28;19966;-80
2021/10/22 00:53:24;;;;;;;;;;;5.40;99.90;;;;;;5111425;28;19942;-81
2021/10/22 00:55:51;;;;;;;;;;;5.40;99.90;;;;;;5116673;28;19947;-82
2021/10/22 00:58:19;;;;;;;;;;;5.40;99.90;;;;;;5101714;28;19949;-81
2021/10/22 01:00:45;;;;;;;;;;;5.50;99.90;;;;;;5110582;28;20047;-80
2021/10/22 01:03:12;;;;;;;;;;;5.50;99.90;;;;;;5121675;28;19947;-81
2021/10/22 01:05:39;;;;;;;;;;;5.50;99.90;;;;;;5112430;28;19961;-80
2021/10/22 01:08:07;;;;;;;;;;;5.50;99.90;;;;;;5109779;28;19958;-80
2021/10/22 01:10:35;;;;;;;;;;;5.50;99.90;;;;;;5116002;28;19985;-81
2021/10/22 01:13:01;;;;;;;;;;;5.60;99.90;;;;;;5107415;28;19960;-81
2021/10/22 01:15:30;;;;;;;;;;;5.60;99.90;;;;;;5110858;28;19945;-81
2021/10/22 01:17:56;;;;;;;;;;;5.60;99.90;;;;;;5103858;28;20597;-80
2021/10/22 01:20:24;;;;;;;;;;;5.60;99.90;;;;;;5116243;28;19950;-80
2021/10/22 01:22:53;;;;;;;;;;;5.60;99.90;;;;;;5101670;28;19939;-80
2021/10/22 01:25:21;;;;;;;;;;;5.60;99.90;;;;;;5106544;28;19946;-80
2021/10/22 01:27:48;;;;;;;;;;;5.50;99.90;;;;;;5114635;28;20304;-80
2021/10/22 01:30:17;;;;;;;;;;;5.50;99.90;;;;;;5109861;28;20113;-80
2021/10/22 01:32:43;;;;;;;;;;;5.50;99.90;;;;;;5112987;28;20475;-79
2021/10/22 01:35:11;;;;;;;;;;;5.50;99.90;;;;;;5113706;28;19942;-80
2021/10/22 01:37:39;;;;;;;;;;;5.40;99.90;;;;;;5106212;28;19940;-81
2021/10/22 01:40:08;;;;;;;;;;;5.50;99.90;;;;;;5114665;28;19962;-80
2021/10/22 01:42:35;;;;;;;;;;;5.40;99.90;;;;;;5099201;28;19951;-80
2021/10/22 01:45:02;;;;;;;;;;;5.50;99.90;;;;;;5112180;28;20105;-80
2021/10/22 01:47:29;;;;;;;;;;;5.50;99.90;;;;;;5101059;28;20044;-80
2021/10/22 01:49:55;;;;;;;;;;;5.50;99.90;;;;;;5108387;28;19949;-81
2021/10/22 01:52:22;;;;;;;;;;;5.40;99.90;;;;;;5111035;28;19963;-80
2021/10/22 01:54:49;;;;;;;;;;;5.40;99.90;;;;;;5100155;28;19945;-81
2021/10/22 01:57:17;;;;;;;;;;;5.40;99.90;;;;;;5112412;27;19956;-81
2021/10/22 01:59:46;;;;;;;;;;;5.30;99.90;;;;;;5115065;27;19947;-81
2021/10/22 02:02:13;;;;;;;;;;;5.30;99.90;;;;;;5114807;27;20007;-81
2021/10/22 02:04:39;;;;;;;;;;;5.30;99.90;;;;;;5107290;27;19949;-80
2021/10/22 02:07:06;;;;;;;;;;;5.20;99.90;;;;;;5109649;27;19945;-81
2021/10/22 02:09:33;;;;;;;;;;;5.20;99.90;;;;;;5109115;27;19946;-80
2021/10/22 02:11:59;;;;;;;;;;;5.20;99.90;;;;;;5118726;27;19955;-80
2021/10/22 02:14:28;;;;;;;;;;;5.20;99.90;;;;;;5115000;27;19945;-80
2021/10/22 02:16:54;;;;;;;;;;;5.20;99.90;;;;;;5096225;27;19954;-80
2021/10/22 02:19:21;;;;;;;;;;;5.20;99.90;;;;;;5105498;27;20045;-82
2021/10/22 02:21:48;;;;;;;;;;;5.10;99.90;;;;;;5116168;27;19948;-79
2021/10/22 02:24:14;;;;;;;;;;;5.10;99.90;;;;;;5114107;27;19948;-80
2021/10/22 02:26:41;;;;;;;;;;;5.10;99.90;;;;;;5115405;27;20102;-79
2021/10/22 02:29:08;;;;;;;;;;;5.00;99.90;;;;;;5114641;27;19981;-78
2021/10/22 02:31:36;;;;;;;;;;;5.00;99.90;;;;;;5117526;27;19968;-79
2021/10/22 02:34:02;;;;;;;;;;;5.00;99.90;;;;;;5111898;27;20019;-80
2021/10/22 02:36:29;;;;;;;;;;;5.00;99.90;;;;;;5101605;27;19943;-79
2021/10/22 02:38:56;;;;;;;;;;;5.00;99.90;;;;;;5119241;27;19961;-79
2021/10/22 02:41:22;;;;;;;;;;;5.00;99.90;;;;;;5117182;27;19946;-79
2021/10/22 02:43:49;;;;;;;;;;;5.00;99.90;;;;;;5114097;27;19949;-79
2021/10/22 02:46:16;;;;;;;;;;;4.90;99.90;;;;;;5116959;27;19953;-80
2021/10/22 02:48:44;;;;;;;;;;;4.90;99.90;;;;;;5107217;27;20216;-80
2021/10/22 02:51:13;;;;;;;;;;;4.90;99.90;;;;;;5110961;27;19948;-79
2021/10/22 02:53:40;;;;;;;;;;;4.90;99.90;;;;;;5113029;27;19968;-79
2021/10/22 02:56:07;;;;;;;;;;;5.00;99.90;;;;;;5113204;27;19941;-79
2021/10/22 02:58:33;;;;;;;;;;;5.00;99.90;;;;;;5108602;27;19941;-79
2021/10/22 03:01:00;;;;;;;;;;;5.00;99.90;;;;;;5119374;27;20002;-80
2021/10/22 03:03:26;;;;;;;;;;;5.00;99.90;;;;;;5121052;27;20034;-79
2021/10/22 03:05:55;;;;;;;;;;;5.00;99.90;;;;;;5115820;27;19953;-80
2021/10/22 03:08:22;;;;;;;;;;;5.00;99.90;;;;;;5104462;27;20362;-79
2021/10/22 03:10:48;;;;;;;;;;;5.00;99.90;;;;;;5116443;27;20391;-80
2021/10/22 03:13:15;;;;;;;;;;;5.00;99.90;;;;;;5108682;27;19953;-80
2021/10/22 03:15:42;;;;;;;;;;;5.00;99.90;;;;;;5117691;27;19941;-80
2021/10/22 03:18:09;;;;;;;;;;;4.90;99.90;;;;;;5108506;27;19950;-79
2021/10/22 03:20:36;;;;;;;;;;;4.90;99.90;;;;;;5112922;27;20349;-79
2021/10/22 03:23:05;;;;;;;;;;;4.90;99.90;;;;;;5107005;27;20001;-79
2021/10/22 03:25:31;;;;;;;;;;;4.90;99.90;;;;;;5111654;27;19936;-80
2021/10/22 03:28:04;;;;;;;;;;;5.00;99.90;;;;;;5110801;27;19988;-80
2021/10/22 03:30:30;;;;;;;;;;;5.00;99.90;;;;;;5108626;27;19998;-80
2021/10/22 03:32:57;;;;;;;;;;;5.00;99.90;;;;;;5114924;27;19958;-79
2021/10/22 03:35:24;;;;;;;;;;;5.00;99.90;;;;;;5103206;27;20428;-79
2021/10/22 03:37:50;;;;;;;;;;;5.00;99.90;;;;;;5122205;27;20030;-79
2021/10/22 03:40:18;;;;;;;;;;;5.00;99.90;;;;;;5115886;27;20385;-79
2021/10/22 03:42:45;;;;;;;;;;;4.90;99.90;;;;;;5108626;27;19945;-79
2021/10/22 03:45:12;;;;;;;;;;;5.00;99.90;;;;;;5106501;27;20012;-79
2021/10/22 03:47:38;;;;;;;;;;;5.00;99.90;;;;;;5115673;27;20323;-78
2021/10/22 03:50:05;;;;;;;;;;;5.00;99.90;;;;;;5106222;27;19947;-79
2021/10/22 03:52:32;;;;;;;;;;;5.00;99.90;;;;;;5114717;27;19960;-79
2021/10/22 03:54:59;;;;;;;;;;;5.00;99.90;;;;;;5112626;27;19949;-79
2021/10/22 03:57:27;;;;;;;;;;;5.00;99.90;;;;;;5112445;27;20018;-79
2021/10/22 03:59:53;;;;;;;;;;;5.00;99.90;;;;;;5117574;27;20091;-78
2021/10/22 04:02:20;;;;;;;;;;;4.90;99.90;;;;;;5110748;27;19943;-80
2021/10/22 04:04:47;;;;;;;;;;;5.00;99.90;;;;;;5111508;27;19949;-80
2021/10/22 04:07:13;;;;;;;;;;;5.00;99.90;;;;;;5106662;27;19961;-80
2021/10/22 04:09:40;;;;;;;;;;;4.90;99.90;;;;;;5100243;27;19995;-80
2021/10/22 04:12:07;;;;;;;;;;;4.90;99.90;;;;;;5105357;27;20044;-80
2021/10/22 04:14:35;;;;;;;;;;;4.90;99.90;;;;;;5108360;27;20042;-73
2021/10/22 04:17:02;;;;;;;;;;;5.00;99.90;;;;;;5116977;27;21683;-73
2021/10/22 04:19:28;;;;;;;;;;;4.90;99.90;;;;;;5112870;27;20788;-73
2021/10/22 04:21:55;;;;;;;;;;;4.90;99.90;;;;;;5121364;27;20036;-73
2021/10/22 04:24:23;;;;;;;;;;;4.90;99.90;;;;;;5102291;27;19947;-73
2021/10/22 04:26:50;;;;;;;;;;;4.90;99.90;;;;;;5109660;27;19951;-74
2021/10/22 04:29:16;;;;;;;;;;;4.90;99.90;;;;;;5106196;27;19957;-73
2021/10/22 04:31:44;;;;;;;;;;;4.90;99.90;;;;;;5106864;27;19953;-73
2021/10/22 04:34:11;;;;;;;;;;;4.90;99.90;;;;;;5109248;27;19942;-73
2021/10/22 04:36:39;;;;;;;;;;;5.00;99.90;;;;;;5109200;27;19952;-73
2021/10/22 04:41:50;;;;;;;;;;;5.00;99.90;;;;;;5112058;27;20144;-72
2021/10/22 04:44:17;;;;;;;;;;;5.00;99.90;;;;;;5106830;27;19959;-72
2021/10/22 04:46:45;;;;;;;;;;;5.00;99.90;;;;;;5112555;27;19947;-72
2021/10/22 04:49:12;;;;;;;;;;;5.00;99.90;;;;;;5105228;27;19944;-72
2021/10/22 04:51:38;;;;;;;;;;;5.00;99.90;;;;;;5106298;28;19943;-72
2021/10/22 04:54:05;;;;;;;;;;;5.00;99.90;;;;;;5109263;28;19973;-72
2021/10/22 04:56:32;;;;;;;;;;;5.00;99.90;;;;;;5107038;28;20037;-72
2021/10/22 04:58:58;;;;;;;;;;;5.00;99.90;;;;;;5106399;28;19969;-73
2021/10/22 05:01:25;;;;;;;;;;;5.00;99.90;;;;;;5103147;28;19952;-72
2021/10/22 05:03:53;;;;;;;;;;;5.00;99.90;;;;;;5097953;28;20024;-72
2021/10/22 05:06:20;;;;;;;;;;;5.00;99.90;;;;;;5101730;28;19955;-71
2021/10/22 05:08:46;;;;;;;;;;;5.00;99.90;;;;;;5116619;28;19940;-70
2021/10/22 05:11:13;;;;;;;;;;;5.00;99.90;;;;;;5119650;28;19960;-70
2021/10/22 05:13:40;;;;;;;;;;;5.00;99.90;;;;;;5106037;28;19972;-71
2021/10/22 05:16:06;;;;;;;;;;;5.00;99.90;;;;;;5109012;28;20412;-70
2021/10/22 05:18:33;;;;;;;;;;;5.00;99.90;;;;;;5116544;28;19941;-71
2021/10/22 05:21:01;;;;;;;;;;;5.00;99.90;;;;;;5115257;28;20003;-71
2021/10/22 05:23:28;;;;;;;;;;;5.00;99.90;;;;;;5106673;28;19952;-71
2021/10/22 05:25:54;;;;;;;;;;;5.00;99.90;;;;;;5112849;28;19959;-73
2021/10/22 05:28:21;;;;;;;;;;;5.00;99.90;;;;;;5117249;28;20335;-71
2021/10/22 05:30:48;;;;;;;;;;;5.00;99.90;;;;;;5108074;27;19956;-72
2021/10/22 05:33:15;;;;;;;;;;;5.00;99.90;;;;;;5114053;27;19995;-71
2021/10/22 05:35:41;;;;;;;;;;;5.00;99.90;;;;;;5118644;27;19946;-71
2021/10/22 05:38:09;;;;;;;;;;;5.00;99.90;;;;;;5115973;27;19950;-68
2021/10/22 05:40:39;;;;;;;;;;;5.00;99.90;;;;;;5109962;27;19950;-71
2021/10/22 05:43:05;;;;;;;;;;;5.00;99.90;;;;;;5112631;27;19945;-70
2021/10/22 05:45:32;;;;;;;;;;;5.00;99.90;;;;;;5111566;27;20047;-71
2021/10/22 05:47:59;;;;;;;;;;;5.00;99.90;;;;;;5109211;27;19966;-73
2021/10/22 05:50:25;;;;;;;;;;;5.10;99.90;;;;;;5113020;27;20407;-73
2021/10/22 05:52:52;;;;;;;;;;;5.00;99.90;;;;;;5121271;27;20069;-73
2021/10/22 05:55:21;;;;;;;;;;;5.10;99.90;;;;;;5115045;27;19973;-74
2021/10/22 05:57:47;;;;;;;;;;;5.10;99.90;;;;;;5118493;27;20031;-73
2021/10/22 06:00:14;;;;;;;;;;;5.10;99.90;;;;;;5117371;27;20459;-74
2021/10/22 06:02:41;;;;;;;;;;;5.10;99.90;;;;;;5109677;27;19979;-74
2021/10/22 06:05:09;;;;;;;;;;;5.10;99.90;;;;;;5116269;27;19957;-73
2021/10/22 06:07:36;;;;;;;;;;;5.10;99.90;;;;;;5114933;27;20063;-73
2021/10/22 06:10:03;;;;;;;;;;;5.10;99.90;;;;;;5111735;27;19965;-71
2021/10/22 06:12:31;;;;;;;;;;;5.10;99.90;;;;;;5113737;27;19971;-72
2021/10/22 06:14:58;;;;;;;;;;;5.20;99.90;;;;;;5114672;27;19979;-72
2021/10/22 06:17:24;;;;;;;;;;;5.20;99.90;;;;;;5110551;27;19956;-71
2021/10/22 06:19:54;;;;;;;;;;;5.20;99.90;;;;;;5108940;27;19942;-72
2021/10/22 06:22:37;;;;;;;;;;;5.20;99.90;;;;;;5103769;27;19952;-72
2021/10/22 06:25:04;;;;;;;;;;;5.30;99.90;;;;;;5117707;27;19952;-72
2021/10/22 06:27:32;;;;;;;;;;;5.30;99.90;;;;;;5114271;27;19953;-71
2021/10/22 06:29:59;;;;;;;;;;;5.30;99.90;;;;;;5117504;27;19950;-70
2021/10/22 06:32:26;;;;;;;;;;;5.40;99.90;;;;;;5113358;27;19972;-72
2021/10/22 06:34:54;;;;;;;;;;;5.40;99.90;;;;;;5116882;27;19954;-70
2021/10/22 06:37:21;;;;;;;;;;;5.40;99.90;;;;;;5117885;27;19952;-71
2021/10/22 06:39:48;;;;;;;;;;;5.40;99.90;;;;;;5108399;27;20300;-70
2021/10/22 06:42:15;;;;;;;;;;;5.50;99.90;;;;;;5100648;27;19939;-73
2021/10/22 06:44:43;;;;;;;;;;;5.50;99.90;;;;;;5109063;27;20401;-74
2021/10/22 06:47:09;;;;;;;;;;;5.50;99.90;;;;;;5103530;27;20049;-72
2021/10/22 06:49:36;;;;;;;;;;;5.50;99.90;;;;;;5111089;27;19945;-74
2021/10/22 06:52:03;;;;;;;;;;;5.60;99.90;;;;;;5120551;27;19959;-73
2021/10/22 06:54:30;;;;;;;;;;;5.60;99.90;;;;;;5119997;27;20008;-74
2021/10/22 06:56:57;;;;;;;;;;;5.70;99.90;;;;;;5110009;27;20047;-73
2021/10/22 06:59:23;;;;;;;;;;;5.70;99.90;;;;;;5108195;27;20406;-73
2021/10/22 07:01:51;;;;;;;;;;;5.70;99.90;;;;;;5117468;27;19945;-73
2021/10/22 07:04:18;;;;;;;;;;;5.80;99.90;;;;;;5106464;27;20364;-71
2021/10/22 07:09:29;;;;;;;;;;;5.90;99.90;;;;;;5111265;27;20044;-71
2021/10/22 07:11:55;;;;;;;;;;;6.00;99.90;;;;;;5116937;27;19953;-70
2021/10/22 07:14:24;;;;;;;;;;;6.00;99.90;;;;;;5110829;27;19965;-71
2021/10/22 07:16:52;;;;;;;;;;;6.00;99.90;;;;;;5118502;27;19951;-71
2021/10/22 07:19:19;;;;;;;;;;;6.10;99.90;;;;;;5112887;27;19959;-71
2021/10/22 07:21:49;;;;;;;;;;;6.20;99.90;;;;;;5110225;27;19947;-71
2021/10/22 07:24:19;;;;;;;;;;;6.20;99.90;;;;;;5114370;27;20454;-71
2021/10/22 07:26:46;;;;;;;;;;;6.30;99.90;;;;;;5119276;27;20001;-71
2021/10/22 07:29:12;;;;;;;;;;;6.40;99.90;;;;;;5117121;27;19952;-71
2021/10/22 07:31:39;;;;;;;;;;;6.50;99.90;;;;;;5120455;27;19972;-71
2021/10/22 07:34:08;;;;;;;;;;;6.60;99.90;;;;;;5108098;27;19996;-72
2021/10/22 07:36:34;;;;;;;;;;;6.60;99.90;;;;;;5117540;27;19947;-72
2021/10/22 07:39:01;;;;;;;;;;;6.70;99.90;;;;;;5111734;27;19947;-72
2021/10/22 07:41:28;;;;;;;;;;;6.80;99.90;;;;;;5114914;27;19947;-73
2021/10/22 07:43:55;;;;;;;;;;;6.80;99.90;;;;;;5123017;27;20031;-73
2021/10/22 07:46:21;;;;;;;;;;;7.00;99.90;;;;;;5116933;27;19990;-73
2021/10/22 07:48:48;;;;;;;;;;;7.00;99.90;;;;;;5115392;27;19948;-73
2021/10/22 07:51:16;;;;;;;;;;;7.10;99.90;;;;;;5115218;27;20042;-73
2021/10/22 07:53:43;;;;;;;;;;;7.20;99.90;;;;;;5102240;27;20045;-71
2021/10/22 07:56:10;;;;;;;;;;;7.70;99.90;;;;;;5114086;27;20003;-72
2021/10/22 07:58:37;;;;;;;;;;;8.40;99.90;;;;;;5110596;27;19962;-72
2021/10/22 08:01:03;;;;;;;;;;;9.10;99.90;;;;;;5114097;27;19944;-71
2021/10/22 08:03:30;;;;;;;;;;;10.00;99.90;;;;;;5112776;27;19952;-70
2021/10/22 08:05:57;;;;;;;;;;;10.90;99.90;;;;;;5109928;27;19949;-70
2021/10/22 08:08:25;;;;;;;;;;;11.10;99.90;;;;;;5108435;27;19951;-72
2021/10/22 08:10:51;;;;;;;;;;;9.90;99.90;;;;;;5106608;27;19946;-70
2021/10/22 08:13:18;;;;;;;;;;;9.80;99.90;;;;;;5110149;27;20038;-71
2021/10/22 08:15:45;;;;;;;;;;;9.40;99.90;;;;;;5109943;27;19971;-72
2021/10/22 08:18:12;;;;;;;;;;;8.90;99.90;;;;;;5115236;27;20035;-73
2021/10/22 08:20:46;;;;;;;;;;;8.50;99.90;;;;;;5105492;27;20035;-70
2021/10/22 08:23:13;;;;;;;;;;;8.30;99.90;;;;;;5116192;27;19952;-68
2021/10/22 08:25:41;;;;;;;;;;;8.20;99.90;;;;;;5114976;27;20044;-73
2021/10/22 08:28:07;;;;;;;;;;;9.30;99.90;;;;;;5120513;27;20360;-71
2021/10/22 08:30:35;;;;;;;;;;;10.10;99.90;;;;;;5110004;27;20027;-70
2021/10/22 08:33:01;;;;;;;;;;;11.20;99.90;;;;;;5112769;27;19947;-70
2021/10/22 08:35:29;;;;;;;;;;;11.90;99.90;;;;;;5110317;28;19949;-71
2021/10/22 08:37:55;;;;;;;;;;;12.00;99.90;;;;;;5103891;27;20433;-72
2021/10/22 08:40:22;;;;;;;;;;;12.30;99.90;;;;;;5113936;27;19971;-72
2021/10/22 08:42:51;;;;;;;;;;;12.60;99.80;;;;;;5104349;27;20047;-73
2021/10/22 08:45:18;;;;;;;;;;;12.70;99.00;;;;;;5103921;27;19950;-71
2021/10/22 08:47:46;;;;;;;;;;;12.20;99.60;;;;;;5105812;28;20033;-73
2021/10/22 08:50:13;;;;;;;;;;;12.40;99.00;;;;;;5108175;27;19951;-70
2021/10/22 08:52:43;;;;;;;;;;;11.70;99.70;;;;;;5111581;28;19948;-70
2021/10/22 08:55:10;;;;;;;;;;;11.50;99.90;;;;;;5105014;28;19955;-71
2021/10/22 08:57:41;;;;;;;;;;;11.50;99.90;;;;;;5112664;28;20346;-72
2021/10/22 09:00:10;;;;;;;;;;;11.80;99.90;;;;;;5126180;28;19944;-70
2021/10/22 09:02:37;;;;;;;;;;;12.10;99.90;;;;;;5118289;28;19950;-72
2021/10/22 09:05:11;;;;;;;;;;;12.10;99.90;;;;;;5113847;27;20033;-72
2021/10/22 09:07:39;;;;;;;;;;;12.00;99.90;;;;;;5122138;27;19951;-72
2021/10/22 09:10:07;;;;;;;;;;;12.50;99.90;;;;;;5116939;27;19955;-72
2021/10/22 09:12:41;;;;;;;;;;;12.60;99.90;;;;;;5114897;27;20325;-71
2021/10/22 09:15:08;;;;;;;;;;;13.50;98.90;;;;;;5111552;27;19961;-73
2021/10/22 09:17:37;;;;;;;;;;;13.20;98.10;;;;;;5113388;27;19951;-71
2021/10/22 09:20:05;;;;;;;;;;;11.90;98.90;;;;;;5111440;27;20003;-70
2021/10/22 09:22:33;;;;;;;;;;;10.90;99.90;;;;;;5122838;27;20308;-73
2021/10/22 09:25:01;;;;;;;;;;;10.60;99.90;;;;;;5125014;27;19997;-73
2021/10/22 09:27:34;;;;;;;;;;;10.50;99.90;;;;;;5123304;27;20033;-73
2021/10/22 09:30:01;;;;;;;;;;;10.50;99.90;;;;;;5110998;27;19953;-72
2021/10/22 09:32:29;;;;;;;;;;;10.50;99.90;;;;;;5126966;27;19952;-72
2021/10/22 09:34:57;;;;;;;;;;;10.50;99.90;;;;;;5117269;27;20046;-73
2021/10/22 09:37:24;;;;;;;;;;;10.60;99.90;;;;;;5108585;27;19949;-73
2021/10/22 09:39:51;;;;;;;;;;;10.70;99.90;;;;;;5115236;27;19943;-72
2021/10/22 09:42:19;;;;;;;;;;;10.70;99.90;;;;;;5117397;27;19956;-72
2021/10/22 09:44:46;;;;;;;;;;;10.70;99.90;;;;;;5117322;27;19945;-72
2021/10/22 09:47:13;;;;;;;;;;;10.60;99.90;;;;;;5107573;27;20017;-71
2021/10/22 09:49:42;;;;;;;;;;;10.70;99.90;;;;;;5118681;27;19943;-72
2021/10/22 09:52:15;;;;;;;;;;;10.90;99.90;;;;;;5114097;27;20416;-72
2021/10/22 09:54:41;;;;;;;;;;;11.00;99.90;;;;;;5126351;27;19959;-71
2021/10/22 09:57:08;;;;;;;;;;;11.00;99.90;;;;;;5112214;27;19987;-72
2021/10/22 09:59:36;;;;;;;;;;;11.10;99.90;;;;;;5119763;27;19946;-71
2021/10/22 10:02:04;;;;;;;;;;;11.20;99.90;;;;;;5110953;27;19947;-73
2021/10/22 10:04:31;;;;;;;;;;;11.10;99.90;;;;;;5106318;27;19950;-72
2021/10/22 10:06:58;;;;;;;;;;;11.00;99.90;;;;;;5119676;27;19945;-72
2021/10/22 10:09:27;;;;;;;;;;;10.90;99.90;;;;;;5118778;27;20456;-73
2021/10/22 10:11:55;;;;;;;;;;;10.90;99.90;;;;;;5117479;27;19955;-72
2021/10/22 10:14:25;;;;;;;;;;;11.00;99.90;;;;;;5106726;27;19960;-73
2021/10/22 10:16:52;;;;;;;;;;;11.10;99.90;;;;;;5115159;27;20036;-72
2021/10/22 10:19:21;;;;;;;;;;;11.20;99.90;;;;;;5116086;27;20401;-70
2021/10/22 10:21:50;;;;;;;;;;;11.30;99.90;;;;;;5122004;27;19963;-71
2021/10/22 10:24:18;;;;;;;;;;;11.30;99.90;;;;;;5115820;27;19938;-72
2021/10/22 10:27:00;;;;;;;;;;;11.40;99.90;;;;;;5118288;27;20045;-72
2021/10/22 10:29:31;;;;;;;;;;;11.50;99.90;;;;;;5113877;27;20036;-72
2021/10/22 10:32:02;;;;;;;;;;;11.50;99.90;;;;;;5114239;27;20450;-71
2021/10/22 10:34:39;;;;;;;;;;;11.50;99.20;;;;;;5110908;27;20426;-71
2021/10/22 10:37:18;;;;;;;;;;;11.40;99.40;;;;;;5111348;27;19946;-72
2021/10/22 10:39:54;;;;;;;;;;;11.40;99.60;;;;;;5112564;27;19987;-72
2021/10/22 10:42:26;;;;;;;;;;;11.50;99.70;;;;;;5108785;27;19947;-72
2021/10/22 10:44:54;;;;;;;;;;;11.70;99.70;;;;;;5113414;27;20043;-75
2021/10/22 10:47:45;;;;;;;;;;;12.00;99.20;;;;;;5116373;27;19949;-74
2021/10/22 10:50:12;;;;;;;;;;;12.30;98.70;;;;;;5098380;27;19940;-73
2021/10/22 10:52:54;;;;;;;;;;;12.60;97.70;;;;;;5116210;27;19947;-71
2021/10/22 10:55:26;;;;;;;;;;;12.50;97.70;;;;;;5111283;27;20060;-69
2021/10/22 10:57:54;;;;;;;;;;;12.20;97.70;;;;;;5114405;27;20447;-71
2021/10/22 11:00:22;;;;;;;;;;;12.10;98.10;;;;;;5107649;27;19944;-72
2021/10/22 11:03:10;;;;;;;;;;;12.30;98.10;;;;;;5112297;27;20295;-73
2021/10/22 11:06:10;;;;;;;;;;;12.20;98.30;;;;;;5108939;27;20731;-72
2021/10/22 11:08:38;;;;;;;;;;;12.30;97.80;;;;;;5114916;27;20042;-73
2021/10/22 11:11:09;;;;;;;;;;;12.50;97.90;;;;;;5109102;27;19968;-72
2021/10/22 11:13:46;;;;;;;;;;;12.80;97.70;;;;;;5104814;27;19941;-72
2021/10/22 11:16:27;;;;;;;;;;;13.00;97.70;;;;;;5118366;27;19945;-75
2021/10/22 11:18:55;;;;;;;;;;;13.20;97.30;;;;;;5100884;27;19946;-75
2021/10/22 11:21:22;;;;;;;;;;;13.10;97.20;;;;;;5118268;27;20394;-73
2021/10/22 11:23:49;;;;;;;;;;;12.90;97.40;;;;;;5115657;27;19941;-72
2021/10/22 11:26:18;;;;;;;;;;;12.70;97.90;;;;;;5117744;27;20423;-71
2021/10/22 11:28:46;;;;;;;;;;;12.60;97.60;;;;;;5114437;27;20321;-71
2021/10/22 11:31:13;;;;;;;;;;;12.60;97.60;;;;;;5112294;27;20422;-70
2021/10/22 11:33:42;;;;;;;;;;;12.50;97.40;;;;;;5113881;27;19946;-71
2021/10/22 11:36:09;;;;;;;;;;;12.40;97.40;;;;;;5109222;27;19941;-72
2021/10/22 11:38:36;;;;;;;;;;;12.40;97.50;;;;;;5112461;27;19950;-73
2021/10/22 11:41:12;;;;;;;;;;;12.30;97.60;;;;;;5115385;27;20385;-70
2021/10/22 11:43:38;;;;;;;;;;;12.30;97.60;;;;;;5116152;27;20030;-73
2021/10/22 11:46:18;;;;;;;;;;;12.30;97.60;;;;;;5117034;27;20330;-71
2021/10/22 11:48:49;;;;;;;;;;;12.30;97.50;;;;;;5113327;27;20047;-73
2021/10/22 11:51:16;;;;;;;;;;;12.30;97.50;;;;;;5107141;27;19940;-71
2021/10/22 11:53:43;;;;;;;;;;;12.30;97.70;;;;;;5115023;27;20314;-72
2021/10/22 11:56:10;;;;;;;;;;;12.40;98.40;;;;;;5111731;27;19955;-71
2021/10/22 11:58:37;;;;;;;;;;;12.40;98.50;;;;;;5115453;27;19994;-71
2021/10/22 12:01:04;;;;;;;;;;;12.40;99.20;;;;;;5120620;27;20030;-71
2021/10/22 12:03:32;;;;;;;;;;;12.50;98.90;;;;;;5112177;27;20446;-71
2021/10/22 12:06:01;;;;;;;;;;;12.40;98.40;;;;;;5121909;27;19945;-71
2021/10/22 12:08:28;;;;;;;;;;;12.40;97.90;;;;;;5107082;27;20000;-72
2021/10/22 12:10:59;;;;;;;;;;;12.40;98.00;;;;;;5111095;27;20390;-72
2021/10/22 12:13:28;;;;;;;;;;;12.50;97.80;;;;;;5110189;27;20498;-72
2021/10/22 12:15:55;;;;;;;;;;;12.50;98.00;;;;;;5104270;27;19931;-70
2021/10/22 12:18:22;;;;;;;;;;;12.50;97.80;;;;;;5115020;27;20011;-70
2021/10/22 12:20:50;;;;;;;;;;;12.50;97.60;;;;;;5105399;27;20402;-71
2021/10/22 12:23:16;;;;;;;;;;;12.50;97.80;;;;;;5103730;27;19927;-71
2021/10/22 12:25:44;;;;;;;;;;;12.50;97.80;;;;;;5119288;27;19924;-70
2021/10/22 12:28:14;;;;;;;;;;;12.60;97.40;;;;;;5104320;27;19923;-71
2021/10/22 12:30:41;;;;;;;;;;;12.70;97.60;;;;;;5104401;27;20297;-72
2021/10/22 12:33:09;;;;;;;;;;;12.90;97.70;;;;;;5110278;27;20297;-72
2021/10/22 12:35:39;;;;;;;;;;;13.10;97.80;;;;;;5117084;27;20310;-73
2021/10/22 12:38:08;;;;;;;;;;;13.20;97.70;;;;;;5105810;27;19923;-73
2021/10/22 12:40:38;;;;;;;;;;;13.10;98.60;;;;;;5117821;27;19923;-73
2021/10/22 12:43:06;;;;;;;;;;;13.10;98.60;;;;;;5110916;27;19924;-73
2021/10/22 12:45:33;;;;;;;;;;;13.10;99.10;;;;;;5104146;28;19928;-71
2021/10/22 12:48:05;;;;;;;;;;;13.00;97.70;;;;;;5111773;28;19924;-71
2021/10/22 12:50:34;;;;;;;;;;;12.90;97.80;;;;;;5114955;27;20198;-72
2021/10/22 12:53:02;;;;;;;;;;;12.70;98.20;;;;;;5099378;28;19930;-71
2021/10/22 12:55:30;;;;;;;;;;;12.70;98.50;;;;;;5112416;28;19963;-71
2021/10/22 12:58:12;;;;;;;;;;;12.80;98.10;;;;;;5105168;28;19932;-72
2021/10/22 13:00:39;;;;;;;;;;;12.80;98.20;;;;;;5117255;28;20006;-72
2021/10/22 13:03:06;;;;;;;;;;;12.80;98.60;;;;;;5105937;28;19931;-71
2021/10/22 13:05:33;;;;;;;;;;;12.90;98.90;;;;;;5113786;28;19927;-70
2021/10/22 13:08:16;;;;;;;;;;;12.80;98.40;;;;;;5110247;28;19938;-72
2021/10/22 13:10:56;;;;;;;;;;;12.50;98.40;;;;;;5111174;28;20022;-70
2021/10/22 13:13:42;;;;;;;;;;;12.40;99.30;;;;;;5102132;28;20002;-69
2021/10/22 13:21:41;;;;;;;;;;;12.20;99.80;;;;;;5110729;28;19948;-71
2021/10/22 13:24:08;;;;;;;;;;;12.00;99.90;;;;;;5106843;28;19976;-73
2021/10/22 13:26:38;;;;;;;;;;;12.00;99.90;;;;;;5109576;28;20018;-70
2021/10/22 13:29:07;;;;;;;;;;;12.00;99.90;;;;;;5119889;28;20590;-72
2021/10/22 13:31:38;;;;;;;;;;;12.00;99.90;;;;;;5105884;28;20010;-73
2021/10/22 13:34:05;;;;;;;;;;;12.10;99.90;;;;;;5102378;28;19963;-72
2021/10/22 13:36:32;;;;;;;;;;;12.10;99.90;;;;;;5110152;28;19942;-72
2021/10/22 13:38:58;;;;;;;;;;;12.30;99.90;;;;;;5110265;28;19928;-71
2021/10/22 13:41:26;;;;;;;;;;;12.40;99.90;;;;;;5112448;28;19927;-70
2021/10/22 13:43:54;;;;;;;;;;;12.30;99.90;;;;;;5119767;28;20310;-72
2021/10/22 13:46:21;;;;;;;;;;;12.30;99.90;;;;;;5106494;28;20390;-70
2021/10/22 13:48:47;;;;;;;;;;;12.30;99.90;;;;;;5110429;28;20385;-70
2021/10/22 13:51:14;;;;;;;;;;;12.50;99.90;;;;;;5108638;27;20058;-70
2021/10/22 13:53:44;;;;;;;;;;;12.60;99.90;;;;;;5114744;27;19970;-71
2021/10/22 13:56:11;;;;;;;;;;;12.60;99.60;;;;;;5118078;27;19923;-70
2021/10/22 13:58:38;;;;;;;;;;;12.60;99.80;;;;;;5124857;27;19962;-70
2021/10/22 14:01:06;;;;;;;;;;;12.70;99.70;;;;;;5114092;27;19924;-70
2021/10/22 14:03:34;;;;;;;;;;;12.70;99.00;;;;;;5114319;27;19928;-69
2021/10/22 14:06:02;;;;;;;;;;;12.40;99.50;;;;;;5119447;27;19924;-72
2021/10/22 14:08:30;;;;;;;;;;;12.20;99.90;;;;;;5108875;27;19924;-72
2021/10/22 14:11:01;;;;;;;;;;;12.20;99.90;;;;;;5120930;27;19927;-71
2021/10/22 14:13:30;;;;;;;;;;;12.30;99.90;;;;;;5120179;27;19957;-71
2021/10/22 14:16:13;;;;;;;;;;;12.40;99.90;;;;;;5112380;27;19925;-71
2021/10/22 14:19:04;;;;;;;;;;;12.70;99.90;;;;;;5106703;27;19928;-72
2021/10/22 14:29:43;;;;;;;;;;;13.30;99.00;;;;;;5109322;27;19991;-74
2021/10/22 14:32:10;;;;;;;;;;;13.20;98.90;;;;;;5109017;27;19959;-74
2021/10/22 14:34:38;;;;;;;;;;;13.10;99.10;;;;;;5103955;27;19932;-74
2021/10/22 14:37:05;;;;;;;;;;;13.20;99.40;;;;;;5112685;27;20438;-74
2021/10/22 14:39:32;;;;;;;;;;;13.30;99.40;;;;;;5111894;27;20074;-73
2021/10/22 14:42:01;;;;;;;;;;;13.30;99.10;;;;;;5112846;27;19924;-74
2021/10/22 14:44:30;;;;;;;;;;;13.30;99.00;;;;;;5112754;27;20283;-75
2021/10/22 14:46:59;;;;;;;;;;;13.20;99.20;;;;;;5118531;27;19932;-75
2021/10/22 14:49:32;;;;;;;;;;;13.30;99.50;;;;;;5117605;27;20006;-74